sensor_id;sensor_type;location;lat;lon;timestamp;pressure;altitude;pressure_sealevel;temperature;humidity
66547;BME280;53400;50.364;14.874;2023-07-24T00:02:17;98003.69;;;20.11;58.86
66547;BME280;53400;50.364;14.874;2023-07-24T00:04:43;98003.88;;;19.97;59.58
66547;BME280;53400;50.364;14.874;2023-07-24T00:07:12;98010.44;;;19.70;60.02
66547;BME280;53400;50.364;14.874;2023-07-24T00:09:39;98002.75;;;19.81;60.11
66547;BME280;53400;50.364;14.874;2023-07-24T00:12:06;97998.16;;;19.73;59.93
66547;BME280;53400;50.364;14.874;2023-07-24T00:14:33;97989.81;;;19.52;60.45
66547;BME280;53400;50.364;14.874;2023-07-24T00:16:59;97992.00;;;19.23;61.15
66547;BME280;53400;50.364;14.874;2023-07-24T00:19:25;97998.88;;;19.47;60.72
66547;BME280;53400;50.364;14.874;2023-07-24T00:21:52;97994.91;;;19.53;60.65
66547;BME280;53400;50.364;14.874;2023-07-24T00:24:20;98002.09;;;19.58;60.84
66547;BME280;53400;50.364;14.874;2023-07-24T00:26:46;97995.06;;;19.39;60.58
66547;BME280;53400;50.364;14.874;2023-07-24T00:29:13;97998.44;;;19.45;60.50
66547;BME280;53400;50.364;14.874;2023-07-24T00:31:39;97992.00;;;19.23;60.68
66547;BME280;53400;50.364;14.874;2023-07-24T00:34:06;97992.81;;;19.33;61.02
66547;BME280;53400;50.364;14.874;2023-07-24T00:36:32;97992.63;;;19.29;60.60
66547;BME280;53400;50.364;14.874;2023-07-24T00:38:59;97990.72;;;19.38;60.35
66547;BME280;53400;50.364;14.874;2023-07-24T00:41:27;97984.00;;;19.18;60.32
66547;BME280;53400;50.364;14.874;2023-07-24T00:43:53;97979.34;;;19.01;60.75
66547;BME280;53400;50.364;14.874;2023-07-24T00:46:19;97989.56;;;19.05;60.86
66547;BME280;53400;50.364;14.874;2023-07-24T00:48:46;97990.41;;;19.22;60.67
66547;BME280;53400;50.364;14.874;2023-07-24T00:51:12;97971.91;;;19.42;60.55
66547;BME280;53400;50.364;14.874;2023-07-24T00:53:39;97976.53;;;19.59;59.08
66547;BME280;53400;50.364;14.874;2023-07-24T00:56:06;97972.72;;;19.86;58.43
66547;BME280;53400;50.364;14.874;2023-07-24T00:58:36;97968.56;;;19.80;58.43
66547;BME280;53400;50.364;14.874;2023-07-24T01:01:04;97967.44;;;19.89;58.13
66547;BME280;53400;50.364;14.874;2023-07-24T01:03:33;97977.50;;;19.89;58.64
66547;BME280;53400;50.364;14.874;2023-07-24T01:06:02;97977.50;;;19.80;58.99
66547;BME280;53400;50.364;14.874;2023-07-24T01:08:29;97980.38;;;19.58;60.10
66547;BME280;53400;50.364;14.874;2023-07-24T01:10:56;97979.25;;;19.33;59.95
66547;BME280;53400;50.364;14.874;2023-07-24T01:13:28;97983.44;;;19.65;59.87
66547;BME280;53400;50.364;14.874;2023-07-24T01:16:03;97974.97;;;19.66;59.54
66547;BME280;53400;50.364;14.874;2023-07-24T01:18:32;97978.59;;;19.53;59.69
66547;BME280;53400;50.364;14.874;2023-07-24T01:21:00;97992.34;;;19.31;60.53
66547;BME280;53400;50.364;14.874;2023-07-24T01:23:37;97978.56;;;19.10;60.66
66547;BME280;53400;50.364;14.874;2023-07-24T01:26:06;97983.22;;;19.18;60.51
66547;BME280;53400;50.364;14.874;2023-07-24T01:28:34;97979.97;;;18.98;61.26
66547;BME280;53400;50.364;14.874;2023-07-24T01:31:01;97977.56;;;18.88;61.51
66547;BME280;53400;50.364;14.874;2023-07-24T01:33:27;97980.56;;;18.87;62.00
66547;BME280;53400;50.364;14.874;2023-07-24T01:35:55;97982.03;;;18.93;61.95
66547;BME280;53400;50.364;14.874;2023-07-24T01:38:24;97988.75;;;19.04;61.42
66547;BME280;53400;50.364;14.874;2023-07-24T01:40:54;97979.31;;;18.84;62.27
66547;BME280;53400;50.364;14.874;2023-07-24T01:43:25;97986.22;;;19.16;61.24
66547;BME280;53400;50.364;14.874;2023-07-24T01:45:54;97986.84;;;19.05;61.66
66547;BME280;53400;50.364;14.874;2023-07-24T01:48:21;97984.28;;;18.99;62.04
66547;BME280;53400;50.364;14.874;2023-07-24T01:50:47;97993.22;;;19.00;62.04
66547;BME280;53400;50.364;14.874;2023-07-24T01:53:15;97992.66;;;19.20;61.89
66547;BME280;53400;50.364;14.874;2023-07-24T01:55:41;97988.47;;;19.23;61.29
66547;BME280;53400;50.364;14.874;2023-07-24T01:58:07;97984.09;;;18.87;62.34
66547;BME280;53400;50.364;14.874;2023-07-24T02:00:35;97987.34;;;19.15;61.33
66547;BME280;53400;50.364;14.874;2023-07-24T02:03:01;97986.28;;;18.76;62.49
66547;BME280;53400;50.364;14.874;2023-07-24T02:05:28;97973.66;;;18.72;62.46
66547;BME280;53400;50.364;14.874;2023-07-24T02:07:55;97967.66;;;18.92;62.40
66547;BME280;53400;50.364;14.874;2023-07-24T02:10:22;97975.53;;;18.63;62.46
66547;BME280;53400;50.364;14.874;2023-07-24T02:12:48;97966.59;;;18.71;62.30
66547;BME280;53400;50.364;14.874;2023-07-24T02:15:14;97960.66;;;19.00;61.93
66547;BME280;53400;50.364;14.874;2023-07-24T02:17:42;97966.06;;;18.91;62.55
66547;BME280;53400;50.364;14.874;2023-07-24T02:20:09;97959.66;;;18.78;62.65
66547;BME280;53400;50.364;14.874;2023-07-24T02:22:35;97957.56;;;18.75;63.63
66547;BME280;53400;50.364;14.874;2023-07-24T02:25:01;97959.50;;;18.75;63.75
66547;BME280;53400;50.364;14.874;2023-07-24T02:27:29;97962.66;;;18.77;63.56
66547;BME280;53400;50.364;14.874;2023-07-24T02:29:57;97952.19;;;18.44;65.84
66547;BME280;53400;50.364;14.874;2023-07-24T02:32:24;97945.66;;;17.92;68.29
66547;BME280;53400;50.364;14.874;2023-07-24T02:34:52;97949.25;;;17.78;68.84
66547;BME280;53400;50.364;14.874;2023-07-24T02:37:19;97940.22;;;17.69;68.97
66547;BME280;53400;50.364;14.874;2023-07-24T02:39:45;97939.13;;;17.70;68.96
66547;BME280;53400;50.364;14.874;2023-07-24T02:42:12;97935.00;;;17.95;68.24
66547;BME280;53400;50.364;14.874;2023-07-24T02:44:38;97950.03;;;18.32;66.67
66547;BME280;53400;50.364;14.874;2023-07-24T02:47:05;97947.13;;;18.60;65.02
66547;BME280;53400;50.364;14.874;2023-07-24T02:49:31;97960.59;;;18.74;64.84
66547;BME280;53400;50.364;14.874;2023-07-24T02:52:00;97964.91;;;18.84;64.61
66547;BME280;53400;50.364;14.874;2023-07-24T02:54:27;97961.19;;;18.71;64.99
66547;BME280;53400;50.364;14.874;2023-07-24T02:56:53;97967.16;;;18.82;65.25
66547;BME280;53400;50.364;14.874;2023-07-24T02:59:19;97972.28;;;18.92;65.61
66547;BME280;53400;50.364;14.874;2023-07-24T03:01:46;97972.63;;;18.50;66.96
66547;BME280;53400;50.364;14.874;2023-07-24T03:04:12;97973.50;;;18.37;67.76
66547;BME280;53400;50.364;14.874;2023-07-24T03:06:40;97977.59;;;18.03;69.96
66547;BME280;53400;50.364;14.874;2023-07-24T03:09:08;97978.97;;;17.92;69.87
66547;BME280;53400;50.364;14.874;2023-07-24T03:11:36;97972.88;;;18.09;69.58
66547;BME280;53400;50.364;14.874;2023-07-24T03:14:02;97970.41;;;17.99;70.11
66547;BME280;53400;50.364;14.874;2023-07-24T03:16:28;97973.59;;;18.01;67.86
66547;BME280;53400;50.364;14.874;2023-07-24T03:18:55;97979.09;;;18.09;67.48
66547;BME280;53400;50.364;14.874;2023-07-24T03:21:22;97972.34;;;18.29;65.40
66547;BME280;53400;50.364;14.874;2023-07-24T03:23:48;97977.28;;;18.27;65.74
66547;BME280;53400;50.364;14.874;2023-07-24T03:26:17;97970.88;;;18.23;65.66
66547;BME280;53400;50.364;14.874;2023-07-24T03:28:43;97967.94;;;18.42;65.57
66547;BME280;53400;50.364;14.874;2023-07-24T03:31:10;97957.34;;;18.63;63.46
66547;BME280;53400;50.364;14.874;2023-07-24T03:33:36;97960.00;;;18.86;62.80
66547;BME280;53400;50.364;14.874;2023-07-24T03:36:05;97959.69;;;18.87;63.19
66547;BME280;53400;50.364;14.874;2023-07-24T03:38:31;97966.88;;;18.92;63.51
66547;BME280;53400;50.364;14.874;2023-07-24T03:40:58;97970.91;;;19.12;63.06
66547;BME280;53400;50.364;14.874;2023-07-24T03:43:25;97970.28;;;19.23;62.56
66547;BME280;53400;50.364;14.874;2023-07-24T03:45:52;97970.91;;;19.12;62.39
66547;BME280;53400;50.364;14.874;2023-07-24T03:48:18;97980.63;;;19.04;63.62
66547;BME280;53400;50.364;14.874;2023-07-24T03:50:46;97976.75;;;18.88;64.28
66547;BME280;53400;50.364;14.874;2023-07-24T03:53:12;97981.09;;;18.97;63.97
66547;BME280;53400;50.364;14.874;2023-07-24T03:55:39;97960.38;;;19.19;62.03
66547;BME280;53400;50.364;14.874;2023-07-24T03:58:05;97965.84;;;19.45;61.58
66547;BME280;53400;50.364;14.874;2023-07-24T04:00:34;97949.38;;;19.50;61.52
66547;BME280;53400;50.364;14.874;2023-07-24T04:03:00;97957.47;;;18.98;64.32
66547;BME280;53400;50.364;14.874;2023-07-24T04:05:27;97949.59;;;18.79;65.92
66547;BME280;53400;50.364;14.874;2023-07-24T04:07:53;97946.13;;;19.05;64.58
66547;BME280;53400;50.364;14.874;2023-07-24T04:10:20;97940.13;;;19.34;63.55
66547;BME280;53400;50.364;14.874;2023-07-24T04:12:46;97936.13;;;19.48;63.05
66547;BME280;53400;50.364;14.874;2023-07-24T04:15:12;97939.78;;;19.53;62.84
66547;BME280;53400;50.364;14.874;2023-07-24T04:17:40;97939.16;;;19.56;62.88
66547;BME280;53400;50.364;14.874;2023-07-24T04:20:09;97925.91;;;19.71;62.38
66547;BME280;53400;50.364;14.874;2023-07-24T04:22:35;97921.91;;;19.60;62.47
66547;BME280;53400;50.364;14.874;2023-07-24T04:25:01;97910.72;;;19.70;62.23
66547;BME280;53400;50.364;14.874;2023-07-24T04:27:28;97900.19;;;19.60;63.02
66547;BME280;53400;50.364;14.874;2023-07-24T04:29:55;97899.84;;;19.62;62.63
66547;BME280;53400;50.364;14.874;2023-07-24T04:32:21;97904.97;;;18.94;66.21
66547;BME280;53400;50.364;14.874;2023-07-24T04:34:49;97928.13;;;19.17;65.28
66547;BME280;53400;50.364;14.874;2023-07-24T04:37:15;97953.81;;;19.20;66.59
66547;BME280;53400;50.364;14.874;2023-07-24T04:39:42;97930.34;;;19.07;66.66
66547;BME280;53400;50.364;14.874;2023-07-24T04:42:08;97908.31;;;19.17;66.36
66547;BME280;53400;50.364;14.874;2023-07-24T04:44:34;97910.88;;;19.31;66.04
66547;BME280;53400;50.364;14.874;2023-07-24T04:47:01;97910.53;;;18.89;68.13
66547;BME280;53400;50.364;14.874;2023-07-24T04:49:29;97906.84;;;18.85;68.62
66547;BME280;53400;50.364;14.874;2023-07-24T04:51:57;97907.34;;;19.04;68.02
66547;BME280;53400;50.364;14.874;2023-07-24T04:54:24;97907.69;;;19.02;69.29
66547;BME280;53400;50.364;14.874;2023-07-24T04:56:50;97911.97;;;18.95;69.72
66547;BME280;53400;50.364;14.874;2023-07-24T04:59:17;97901.91;;;18.95;69.82
66547;BME280;53400;50.364;14.874;2023-07-24T05:01:43;97885.16;;;19.11;69.55
66547;BME280;53400;50.364;14.874;2023-07-24T05:04:10;97887.88;;;19.37;68.83
66547;BME280;53400;50.364;14.874;2023-07-24T05:06:36;97881.19;;;19.25;69.44
66547;BME280;53400;50.364;14.874;2023-07-24T05:09:05;97870.31;;;19.43;69.55
66547;BME280;53400;50.364;14.874;2023-07-24T05:11:32;97870.78;;;19.54;69.74
66547;BME280;53400;50.364;14.874;2023-07-24T05:13:58;97881.81;;;19.57;69.62
66547;BME280;53400;50.364;14.874;2023-07-24T05:16:24;97883.72;;;19.13;71.26
66547;BME280;53400;50.364;14.874;2023-07-24T05:18:51;97878.47;;;19.08;71.90
66547;BME280;53400;50.364;14.874;2023-07-24T05:21:17;97888.69;;;19.02;72.27
66547;BME280;53400;50.364;14.874;2023-07-24T05:23:43;97895.53;;;19.26;71.72
66547;BME280;53400;50.364;14.874;2023-07-24T05:26:11;97881.19;;;19.25;71.64
66547;BME280;53400;50.364;14.874;2023-07-24T05:28:37;97878.66;;;19.20;72.63
66547;BME280;53400;50.364;14.874;2023-07-24T05:31:04;97873.97;;;19.38;72.41
66547;BME280;53400;50.364;14.874;2023-07-24T05:33:32;97875.09;;;19.20;73.08
66547;BME280;53400;50.364;14.874;2023-07-24T05:35:59;97886.94;;;19.15;73.61
66547;BME280;53400;50.364;14.874;2023-07-24T05:38:26;97879.59;;;19.24;73.73
66547;BME280;53400;50.364;14.874;2023-07-24T05:40:56;97885.81;;;19.51;73.35
66547;BME280;53400;50.364;14.874;2023-07-24T05:43:24;97880.84;;;19.44;73.55
66547;BME280;53400;50.364;14.874;2023-07-24T05:45:50;97870.81;;;19.45;73.90
66547;BME280;53400;50.364;14.874;2023-07-24T05:48:18;97872.25;;;19.51;73.67
66547;BME280;53400;50.364;14.874;2023-07-24T05:50:44;97871.91;;;19.53;74.26
66547;BME280;53400;50.364;14.874;2023-07-24T05:53:11;97868.03;;;19.62;73.28
66547;BME280;53400;50.364;14.874;2023-07-24T05:55:37;97862.09;;;19.86;72.92
66547;BME280;53400;50.364;14.874;2023-07-24T05:58:03;97860.66;;;19.98;72.56
66547;BME280;53400;50.364;14.874;2023-07-24T06:00:31;97884.00;;;19.90;73.09
66547;BME280;53400;50.364;14.874;2023-07-24T06:02:58;97883.03;;;19.94;72.86
66547;BME280;53400;50.364;14.874;2023-07-24T06:05:24;97881.38;;;20.11;72.60
66547;BME280;53400;50.364;14.874;2023-07-24T06:07:51;97879.16;;;20.04;73.08
66547;BME280;53400;50.364;14.874;2023-07-24T06:10:17;97877.44;;;20.38;72.42
66547;BME280;53400;50.364;14.874;2023-07-24T06:12:43;97876.81;;;20.32;72.23
66547;BME280;53400;50.364;14.874;2023-07-24T06:15:10;97870.88;;;20.69;71.61
66547;BME280;53400;50.364;14.874;2023-07-24T06:17:38;97869.53;;;20.83;70.88
66547;BME280;53400;50.364;14.874;2023-07-24T06:20:05;97862.75;;;21.11;70.89
66547;BME280;53400;50.364;14.874;2023-07-24T06:22:33;97872.59;;;21.45;69.21
66547;BME280;53400;50.364;14.874;2023-07-24T06:25:00;97875.91;;;21.50;69.26
66547;BME280;53400;50.364;14.874;2023-07-24T06:27:27;97875.31;;;21.45;70.16
66547;BME280;53400;50.364;14.874;2023-07-24T06:29:53;97879.69;;;21.58;69.78
66547;BME280;53400;50.364;14.874;2023-07-24T06:32:19;97880.06;;;21.69;69.37
66547;BME280;53400;50.364;14.874;2023-07-24T06:34:46;97874.09;;;22.00;68.40
66547;BME280;53400;50.364;14.874;2023-07-24T06:37:13;97870.44;;;22.29;68.68
66547;BME280;53400;50.364;14.874;2023-07-24T06:39:39;97859.75;;;22.24;67.99
66547;BME280;53400;50.364;14.874;2023-07-24T06:42:05;97849.41;;;22.17;67.29
66547;BME280;53400;50.364;14.874;2023-07-24T06:44:31;97863.84;;;22.30;68.65
66547;BME280;53400;50.364;14.874;2023-07-24T06:46:57;97872.59;;;22.24;68.29
66547;BME280;53400;50.364;14.874;2023-07-24T06:49:23;97883.28;;;22.29;67.62
66547;BME280;53400;50.364;14.874;2023-07-24T06:51:51;97886.91;;;22.33;67.12
66547;BME280;53400;50.364;14.874;2023-07-24T06:54:18;97876.00;;;22.20;67.53
66547;BME280;53400;50.364;14.874;2023-07-24T06:56:44;97889.69;;;22.12;67.18
66547;BME280;53400;50.364;14.874;2023-07-24T06:59:10;97882.91;;;22.18;67.10
66547;BME280;53400;50.364;14.874;2023-07-24T07:01:37;97878.09;;;22.15;66.85
66547;BME280;53400;50.364;14.874;2023-07-24T07:04:03;97863.56;;;21.98;66.66
66547;BME280;53400;50.364;14.874;2023-07-24T07:06:30;97860.16;;;22.14;66.74
66547;BME280;53400;50.364;14.874;2023-07-24T07:08:57;97850.72;;;22.11;67.16
66547;BME280;53400;50.364;14.874;2023-07-24T07:11:24;97858.88;;;21.53;68.69
66547;BME280;53400;50.364;14.874;2023-07-24T07:13:50;97871.16;;;21.60;68.86
66547;BME280;53400;50.364;14.874;2023-07-24T07:16:17;97867.00;;;21.41;68.75
66547;BME280;53400;50.364;14.874;2023-07-24T07:18:44;97864.16;;;21.71;68.35
66547;BME280;53400;50.364;14.874;2023-07-24T07:21:11;97882.34;;;21.67;70.98
66547;BME280;53400;50.364;14.874;2023-07-24T07:23:38;97879.88;;;21.53;74.79
66547;BME280;53400;50.364;14.874;2023-07-24T07:26:07;97859.47;;;21.59;75.49
66547;BME280;53400;50.364;14.874;2023-07-24T07:28:33;97852.16;;;21.84;76.37
66547;BME280;53400;50.364;14.874;2023-07-24T07:31:00;97841.84;;;21.44;74.46
66547;BME280;53400;50.364;14.874;2023-07-24T07:33:26;97830.94;;;20.60;75.97
66547;BME280;53400;50.364;14.874;2023-07-24T07:35:54;97868.19;;;20.90;76.62
66547;BME280;53400;50.364;14.874;2023-07-24T07:38:20;97871.13;;;21.05;76.83
66547;BME280;53400;50.364;14.874;2023-07-24T07:40:50;97862.22;;;20.96;77.36
66547;BME280;53400;50.364;14.874;2023-07-24T07:43:18;97852.00;;;20.93;77.25
66547;BME280;53400;50.364;14.874;2023-07-24T07:45:44;97817.50;;;20.85;77.75
66547;BME280;53400;50.364;14.874;2023-07-24T07:48:11;97833.81;;;20.85;77.50
66547;BME280;53400;50.364;14.874;2023-07-24T07:50:37;97837.72;;;20.96;79.43
66547;BME280;53400;50.364;14.874;2023-07-24T07:53:03;97839.72;;;21.08;78.76
66547;BME280;53400;50.364;14.874;2023-07-24T07:55:30;97850.09;;;20.94;78.03
66547;BME280;53400;50.364;14.874;2023-07-24T07:57:57;97848.53;;;21.05;78.20
66547;BME280;53400;50.364;14.874;2023-07-24T08:00:25;97848.97;;;20.95;78.06
66547;BME280;53400;50.364;14.874;2023-07-24T08:02:51;97854.28;;;20.91;76.92
66547;BME280;53400;50.364;14.874;2023-07-24T08:05:17;97868.06;;;21.07;76.90
66547;BME280;53400;50.364;14.874;2023-07-24T08:07:44;97877.44;;;21.39;75.89
66547;BME280;53400;50.364;14.874;2023-07-24T08:10:10;97903.06;;;21.17;77.51
66547;BME280;53400;50.364;14.874;2023-07-24T08:12:36;97917.63;;;21.42;77.80
66547;BME280;53400;50.364;14.874;2023-07-24T08:15:03;97910.84;;;21.27;77.90
66547;BME280;53400;50.364;14.874;2023-07-24T08:17:31;97905.25;;;21.24;76.50
66547;BME280;53400;50.364;14.874;2023-07-24T08:19:58;97900.06;;;21.40;74.87
66547;BME280;53400;50.364;14.874;2023-07-24T08:22:24;97891.25;;;21.34;75.16
66547;BME280;53400;50.364;14.874;2023-07-24T08:24:51;97884.50;;;21.40;74.51
66547;BME280;53400;50.364;14.874;2023-07-24T08:27:17;97879.28;;;21.47;73.94
66547;BME280;53400;50.364;14.874;2023-07-24T08:29:44;97876.88;;;21.67;72.66
66547;BME280;53400;50.364;14.874;2023-07-24T08:32:10;97886.97;;;21.66;72.85
66547;BME280;53400;50.364;14.874;2023-07-24T08:34:38;97867.16;;;21.90;71.74
66547;BME280;53400;50.364;14.874;2023-07-24T08:37:05;97871.69;;;22.32;71.99
66547;BME280;53400;50.364;14.874;2023-07-24T08:39:32;97865.88;;;22.58;71.18
66547;BME280;53400;50.364;14.874;2023-07-24T08:42:09;97845.06;;;22.78;69.56
66547;BME280;53400;50.364;14.874;2023-07-24T08:44:40;97831.38;;;23.02;67.23
66547;BME280;53400;50.364;14.874;2023-07-24T08:47:10;97826.97;;;23.26;66.36
66547;BME280;53400;50.364;14.874;2023-07-24T08:49:42;97821.41;;;23.50;67.21
66547;BME280;53400;50.364;14.874;2023-07-24T08:52:09;97814.41;;;23.97;65.77
66547;BME280;53400;50.364;14.874;2023-07-24T08:54:36;97809.28;;;24.27;63.04
66547;BME280;53400;50.364;14.874;2023-07-24T08:57:06;97793.84;;;24.35;62.64
66547;BME280;53400;50.364;14.874;2023-07-24T08:59:32;97778.22;;;24.70;61.36
66547;BME280;53400;50.364;14.874;2023-07-24T09:01:59;97778.53;;;24.49;59.74
66547;BME280;53400;50.364;14.874;2023-07-24T09:04:26;97774.47;;;24.79;59.04
66547;BME280;53400;50.364;14.874;2023-07-24T09:07:00;97765.63;;;24.66;60.12
66547;BME280;53400;50.364;14.874;2023-07-24T09:09:29;97770.00;;;24.70;58.94
66547;BME280;53400;50.364;14.874;2023-07-24T09:11:57;97781.06;;;24.93;59.03
66547;BME280;53400;50.364;14.874;2023-07-24T09:14:29;97801.84;;;25.14;57.87
66547;BME280;53400;50.364;14.874;2023-07-24T09:17:06;97797.41;;;25.71;57.73
66547;BME280;53400;50.364;14.874;2023-07-24T09:19:34;97796.72;;;26.20;56.43
66547;BME280;53400;50.364;14.874;2023-07-24T09:22:13;97794.22;;;25.66;56.87
66547;BME280;53400;50.364;14.874;2023-07-24T09:24:50;97786.78;;;25.47;57.38
66547;BME280;53400;50.364;14.874;2023-07-24T09:27:16;97794.53;;;25.83;56.40
66547;BME280;53400;50.364;14.874;2023-07-24T09:29:44;97792.16;;;25.82;55.94
66547;BME280;53400;50.364;14.874;2023-07-24T09:32:18;97790.13;;;26.02;55.36
66547;BME280;53400;50.364;14.874;2023-07-24T09:34:45;97785.78;;;26.24;54.25
66547;BME280;53400;50.364;14.874;2023-07-24T09:37:22;97785.13;;;26.07;54.73
66547;BME280;53400;50.364;14.874;2023-07-24T09:39:49;97782.94;;;26.43;55.11
66547;BME280;53400;50.364;14.874;2023-07-24T09:42:15;97778.66;;;25.73;54.51
66547;BME280;53400;50.364;14.874;2023-07-24T09:44:41;97782.47;;;25.46;55.61
66547;BME280;53400;50.364;14.874;2023-07-24T09:47:07;97776.94;;;25.65;56.43
66547;BME280;53400;50.364;14.874;2023-07-24T09:49:34;97764.34;;;26.06;54.69
66547;BME280;53400;50.364;14.874;2023-07-24T09:52:03;97769.63;;;26.19;55.84
66547;BME280;53400;50.364;14.874;2023-07-24T09:54:38;97762.44;;;26.37;55.62
66547;BME280;53400;50.364;14.874;2023-07-24T09:57:12;97743.25;;;26.37;56.50
66547;BME280;53400;50.364;14.874;2023-07-24T09:59:40;97751.53;;;26.67;55.37
66547;BME280;53400;50.364;14.874;2023-07-24T10:02:10;97757.00;;;26.97;53.64
66547;BME280;53400;50.364;14.874;2023-07-24T10:04:38;97761.03;;;26.73;53.40
66547;BME280;53400;50.364;14.874;2023-07-24T10:07:07;97752.47;;;26.25;54.02
66547;BME280;53400;50.364;14.874;2023-07-24T10:09:35;97750.25;;;25.81;55.72
66547;BME280;53400;50.364;14.874;2023-07-24T10:12:03;97756.00;;;26.26;54.65
66547;BME280;53400;50.364;14.874;2023-07-24T10:14:30;97748.63;;;26.87;53.79
66547;BME280;53400;50.364;14.874;2023-07-24T10:16:56;97748.00;;;27.34;52.13
66547;BME280;53400;50.364;14.874;2023-07-24T10:19:36;97739.19;;;27.55;51.67
66547;BME280;53400;50.364;14.874;2023-07-24T10:22:03;97728.72;;;27.27;53.45
66547;BME280;53400;50.364;14.874;2023-07-24T10:24:30;97733.53;;;27.04;52.22
66547;BME280;53400;50.364;14.874;2023-07-24T10:26:59;97725.03;;;26.52;54.05
66547;BME280;53400;50.364;14.874;2023-07-24T10:29:25;97731.13;;;27.02;52.81
66547;BME280;53400;50.364;14.874;2023-07-24T10:31:54;97724.84;;;27.35;52.73
66547;BME280;53400;50.364;14.874;2023-07-24T10:34:21;97724.91;;;27.83;50.08
66547;BME280;53400;50.364;14.874;2023-07-24T10:36:50;97732.06;;;27.92;50.74
66547;BME280;53400;50.364;14.874;2023-07-24T10:39:17;97735.94;;;27.87;50.36
66547;BME280;53400;50.364;14.874;2023-07-24T10:41:47;97725.28;;;27.41;51.67
66547;BME280;53400;50.364;14.874;2023-07-24T10:44:15;97733.88;;;27.77;51.90
66547;BME280;53400;50.364;14.874;2023-07-24T10:46:41;97735.34;;;27.63;51.81
66547;BME280;53400;50.364;14.874;2023-07-24T10:49:09;97729.78;;;28.04;50.01
66547;BME280;53400;50.364;14.874;2023-07-24T10:51:36;97730.72;;;28.30;49.69
66547;BME280;53400;50.364;14.874;2023-07-24T10:54:06;97723.00;;;28.43;49.65
66547;BME280;53400;50.364;14.874;2023-07-24T10:56:32;97721.91;;;28.62;48.59
66547;BME280;53400;50.364;14.874;2023-07-24T10:59:03;97711.84;;;28.28;49.16
66547;BME280;53400;50.364;14.874;2023-07-24T11:01:31;97713.19;;;28.49;49.85
66547;BME280;53400;50.364;14.874;2023-07-24T11:03:59;97708.44;;;28.46;49.90
66547;BME280;53400;50.364;14.874;2023-07-24T11:06:26;97704.34;;;28.18;51.03
66547;BME280;53400;50.364;14.874;2023-07-24T11:08:56;97687.84;;;28.25;50.27
66547;BME280;53400;50.364;14.874;2023-07-24T11:11:22;97690.00;;;28.61;49.88
66547;BME280;53400;50.364;14.874;2023-07-24T11:13:53;97689.59;;;28.55;49.83
66547;BME280;53400;50.364;14.874;2023-07-24T11:16:19;97682.50;;;28.57;49.67
66547;BME280;53400;50.364;14.874;2023-07-24T11:18:49;97680.72;;;28.21;51.09
66547;BME280;53400;50.364;14.874;2023-07-24T11:21:16;97676.63;;;28.63;51.29
66547;BME280;53400;50.364;14.874;2023-07-24T11:23:48;97667.94;;;28.50;50.58
66547;BME280;53400;50.364;14.874;2023-07-24T11:26:21;97661.66;;;28.60;50.91
66547;BME280;53400;50.364;14.874;2023-07-24T11:28:51;97654.66;;;28.77;50.12
66547;BME280;53400;50.364;14.874;2023-07-24T11:31:17;97663.44;;;29.22;49.28
66547;BME280;53400;50.364;14.874;2023-07-24T11:33:50;97657.13;;;29.18;49.11
66547;BME280;53400;50.364;14.874;2023-07-24T11:36:20;97664.22;;;29.26;49.52
66547;BME280;53400;50.364;14.874;2023-07-24T11:38:50;97657.13;;;29.14;48.64
66547;BME280;53400;50.364;14.874;2023-07-24T11:41:19;97656.34;;;29.14;48.91
66547;BME280;53400;50.364;14.874;2023-07-24T11:43:51;97654.28;;;28.89;49.77
66547;BME280;53400;50.364;14.874;2023-07-24T11:46:24;97644.41;;;28.74;50.37
66547;BME280;53400;50.364;14.874;2023-07-24T11:48:54;97646.69;;;28.50;50.52
66547;BME280;53400;50.364;14.874;2023-07-24T11:51:26;97635.09;;;28.16;50.80
66547;BME280;53400;50.364;14.874;2023-07-24T11:54:06;97629.94;;;28.07;51.36
66547;BME280;53400;50.364;14.874;2023-07-24T11:56:33;97623.94;;;28.64;49.87
66547;BME280;53400;50.364;14.874;2023-07-24T11:59:09;97623.16;;;28.81;49.86
66547;BME280;53400;50.364;14.874;2023-07-24T12:01:35;97627.16;;;28.98;50.10
66547;BME280;53400;50.364;14.874;2023-07-24T12:04:04;97620.22;;;28.31;50.82
66547;BME280;53400;50.364;14.874;2023-07-24T12:06:30;97615.34;;;27.44;52.30
66547;BME280;53400;50.364;14.874;2023-07-24T12:09:02;97624.88;;;28.17;52.36
66547;BME280;53400;50.364;14.874;2023-07-24T12:11:30;97624.75;;;28.86;51.10
66547;BME280;53400;50.364;14.874;2023-07-24T12:13:57;97627.50;;;28.79;51.67
66547;BME280;53400;50.364;14.874;2023-07-24T12:16:23;97624.81;;;29.08;50.07
66547;BME280;53400;50.364;14.874;2023-07-24T12:18:50;97611.44;;;29.13;50.40
66547;BME280;53400;50.364;14.874;2023-07-24T12:21:19;97609.88;;;29.37;48.67
66547;BME280;53400;50.364;14.874;2023-07-24T12:23:45;97601.47;;;28.66;49.25
66547;BME280;53400;50.364;14.874;2023-07-24T12:26:12;97582.25;;;28.87;49.16
66547;BME280;53400;50.364;14.874;2023-07-24T12:28:38;97581.91;;;29.07;48.94
66547;BME280;53400;50.364;14.874;2023-07-24T12:31:04;97576.94;;;28.28;51.22
66547;BME280;53400;50.364;14.874;2023-07-24T12:33:31;97579.03;;;28.53;51.26
66547;BME280;53400;50.364;14.874;2023-07-24T12:35:59;97585.44;;;29.18;49.13
66547;BME280;53400;50.364;14.874;2023-07-24T12:38:29;97572.44;;;29.36;48.30
66547;BME280;53400;50.364;14.874;2023-07-24T12:41:00;97578.34;;;29.42;49.35
66547;BME280;53400;50.364;14.874;2023-07-24T12:43:27;97572.31;;;28.47;51.15
66547;BME280;53400;50.364;14.874;2023-07-24T12:45:54;97570.88;;;29.24;49.88
66547;BME280;53400;50.364;14.874;2023-07-24T12:48:20;97561.03;;;29.02;49.92
66547;BME280;53400;50.364;14.874;2023-07-24T12:50:47;97550.41;;;29.29;49.11
66547;BME280;53400;50.364;14.874;2023-07-24T12:53:14;97539.34;;;29.18;50.61